»·PEaware :: SKY385 KHLN-KLVM

SKY385 :: KHLN-KLVM

FLIGHT INFORMATION

Flight Status: Arrived
Operator:
Sky High Charters
More flights by this operator :: More flights under this callsign
Pilot: Justin Z. (25672)
Aircraft: SOCATA TBM-900
(TBM9)
More flights by this aircraft type
Origin: KHLN Helena Regl
United States
Destination: KLVM Mission
United States
More flights between these airports :: More routes between these airports
Route: DIVD1 HLN V2 LVM
File this flight plan on PilotEdge
Remarks: SKY 7 LEG 1
Altitude:
(Current/Filed)
11,000ft
Speed:
(Current/Filed)
225kts
Departed: 12-Oct-19 07:12 AM
Arrived: 12-Oct-19 07:52 AM
Distance/Time
Traveled:
84nm/0:40
Distance/Time
To Go:
Arrived

Flight Plot

Page will automatically refresh every two minutes.

Flight plan parsing failed; only flown route is shown


Map Options




Map Legend


Flown Route
Filed Route
Departure Airport
Arrival Airport
Navaid (VOR, NDB)
Fix

Horizontal Profiles

Position Reports

Time Latitude Longitude Heading Altitude Ground
Speed
12-Oct-19 06:45 46.602723 -111.991746 1 3877ft 0kts
12-Oct-19 06:46 46.602723 -111.991746 1 3877ft 0kts
12-Oct-19 06:47 46.602723 -111.991746 1 3877ft 0kts
12-Oct-19 06:48 46.602723 -111.991746 1 3877ft 0kts
12-Oct-19 06:49 46.602723 -111.991746 1 3877ft 0kts
12-Oct-19 06:50 46.602723 -111.991746 1 3877ft 0kts
12-Oct-19 06:51 46.602723 -111.991746 1 3877ft 0kts
12-Oct-19 06:52 46.602723 -111.991746 1 3877ft 0kts
12-Oct-19 06:53 46.602723 -111.991746 1 3877ft 0kts
12-Oct-19 06:54 46.602723 -111.991746 1 3877ft 0kts
12-Oct-19 06:55 46.602723 -111.991746 1 3877ft 0kts
12-Oct-19 06:56 46.602723 -111.991746 1 3877ft 0kts
12-Oct-19 06:57 46.602723 -111.991746 1 3877ft 0kts
12-Oct-19 06:58 46.602723 -111.991746 1 3877ft 0kts
12-Oct-19 06:59 46.602723 -111.991746 1 3877ft 0kts
12-Oct-19 07:00 46.602723 -111.991746 1 3877ft 0kts
12-Oct-19 07:01 46.602723 -111.991746 1 3877ft 0kts
12-Oct-19 07:02 46.602723 -111.991746 1 3877ft 0kts
12-Oct-19 07:03 46.602723 -111.991746 1 3877ft 0kts
12-Oct-19 07:04 46.602723 -111.991746 1 3877ft 0kts
12-Oct-19 07:05 46.602723 -111.991746 1 3877ft 0kts
12-Oct-19 07:06 46.602786 -111.991692 55 3877ft 4kts
12-Oct-19 07:07 46.603484 -111.985233 84 3861ft 20kts
12-Oct-19 07:08 46.603420 -111.976353 96 3857ft 26kts
12-Oct-19 07:09 46.601982 -111.964506 102 3846ft 27kts
12-Oct-19 07:10 46.602139 -111.963285 33 3843ft 3kts
12-Oct-19 07:11 46.604733 -111.974137 281 3889ft 108kts
12-Oct-19 07:12 46.627657 -112.000067 31 5362ft 151kts
12-Oct-19 07:13 46.666798 -111.989781 318 6872ft 169kts
12-Oct-19 07:14 46.707525 -112.026250 347 8303ft 175kts
12-Oct-19 07:15 46.712724 -111.978119 167 9701ft 188kts
12-Oct-19 07:16 46.661786 -111.972603 169 11003ft 193kts
12-Oct-19 07:17 46.604171 -111.945586 129 10990ft 240kts
12-Oct-19 07:18 46.570603 -111.858831 118 11003ft 252kts
12-Oct-19 07:19 46.535140 -111.766480 118 11001ft 255kts
12-Oct-19 07:20 46.498745 -111.672029 118 11003ft 259kts
12-Oct-19 07:21 46.461415 -111.575473 118 11004ft 275kts
12-Oct-19 07:22 46.423331 -111.477335 118 11005ft 278kts
12-Oct-19 07:23 46.384791 -111.378389 118 11009ft 279kts
12-Oct-19 07:24 46.346335 -111.280016 119 11008ft 279kts
12-Oct-19 07:25 46.307871 -111.181979 119 11009ft 279kts
12-Oct-19 07:26 46.269216 -111.084689 125 11062ft 278kts
12-Oct-19 07:27 46.208982 -111.013993 141 11074ft 279kts
12-Oct-19 07:28 46.147669 -110.944111 141 11074ft 280kts
12-Oct-19 07:29 46.086277 -110.874305 140 11074ft 281kts
12-Oct-19 07:30 46.024553 -110.804303 141 11057ft 282kts
12-Oct-19 07:31 45.963304 -110.735072 141 10949ft 261kts
12-Oct-19 07:32 45.912145 -110.677349 142 10321ft 213kts
12-Oct-19 07:33 45.868051 -110.627757 143 9754ft 195kts
12-Oct-19 07:34 45.823123 -110.577370 143 9310ft 213kts
12-Oct-19 07:35 45.775925 -110.524477 144 9002ft 211kts
12-Oct-19 07:36 45.730660 -110.473872 144 9007ft 202kts
12-Oct-19 07:37 45.713083 -110.410776 55 8844ft 195kts
12-Oct-19 07:38 45.737780 -110.341539 58 8599ft 188kts
12-Oct-19 07:39 45.760576 -110.276267 58 8600ft 178kts
12-Oct-19 07:40 45.782406 -110.213472 57 8604ft 174kts
12-Oct-19 07:41 45.804342 -110.151890 52 8606ft 172kts
12-Oct-19 07:42 45.828771 -110.092903 56 8537ft 176kts
12-Oct-19 07:43 45.800182 -110.061592 237 8036ft 169kts
12-Oct-19 07:44 45.805970 -110.120744 266 7994ft 151kts
12-Oct-19 07:45 45.784283 -110.172475 259 8006ft 146kts
12-Oct-19 07:46 45.775711 -110.232132 247 7569ft 171kts
12-Oct-19 07:47 45.753215 -110.296092 247 6784ft 185kts
12-Oct-19 07:48 45.732699 -110.354515 247 5770ft 135kts
12-Oct-19 07:49 45.719270 -110.392761 247 5356ft 97kts
12-Oct-19 07:50 45.708410 -110.423890 244 4897ft 69kts
12-Oct-19 07:51 45.698355 -110.445022 235 4649ft 28kts
12-Oct-19 07:52 45.696039 -110.452272 326 4651ft 0kts
12-Oct-19 07:53 45.696959 -110.452623 144 4650ft 14kts
12-Oct-19 07:54 45.696818 -110.452640 237 4650ft 0kts
12-Oct-19 07:55 45.696818 -110.452640 237 4650ft 0kts
12-Oct-19 07:56 45.696818 -110.452640 237 4650ft 0kts
12-Oct-19 07:57 45.696818 -110.452640 237 4650ft 0kts
12-Oct-19 07:58 45.696818 -110.452640 237 4650ft 0kts
12-Oct-19 07:59 45.696818 -110.452640 237 4650ft 0kts
12-Oct-19 08:00 45.696818 -110.452640 237 4650ft 0kts
12-Oct-19 08:01 45.696818 -110.452640 237 4650ft 0kts
12-Oct-19 08:02 45.696818 -110.452640 237 4650ft 0kts
12-Oct-19 08:03 45.696818 -110.452640 237 4650ft 0kts
12-Oct-19 08:04 45.696818 -110.452640 237 4650ft 0kts
12-Oct-19 08:05 45.696818 -110.452640 237 4650ft 0kts

Navigation Log

Ident Type
Flight plan parsing failed, navigation log unavailable